Time;durP1;ratioP1;P1;durP2;ratioP2;P2;SDS_P1;SDS_P2;PMS_P1;PMS_P2;Temp;Humidity;BMP_temperature;BMP_pressure;BME280_temperature;BME280_humidity;BME280_pressure;Samples;Min_cycle;Max_cycle;Signal;HPM_P1;HPM_P2
2021/01/14 00:00:33;;;;;;;2.25;1.55;;;0.50;99.90;;;;;;5032367;28;20217;-63
2021/01/14 00:03:01;;;;;;;2.03;1.20;;;0.60;99.90;;;;;;5032858;28;20189;-60
2021/01/14 00:05:29;;;;;;;1.70;1.25;;;0.50;99.90;;;;;;5032330;28;20201;-61
2021/01/14 00:07:57;;;;;;;1.23;0.95;;;0.40;99.90;;;;;;5032172;28;20198;-60
2021/01/14 00:10:24;;;;;;;1.65;1.50;;;0.40;99.90;;;;;;5032332;28;20209;-60
2021/01/14 00:12:52;;;;;;;2.63;1.30;;;0.30;99.90;;;;;;5032558;28;20185;-60
2021/01/14 00:15:19;;;;;;;3.25;3.00;;;0.20;99.90;;;;;;5033991;28;20190;-59
2021/01/14 00:17:46;;;;;;;1.75;1.30;;;0.10;99.90;;;;;;5036305;28;20185;-57
2021/01/14 00:20:15;;;;;;;1.45;0.93;;;0.10;99.90;;;;;;5036259;28;20205;-59
2021/01/14 00:22:43;;;;;;;1.90;1.80;;;0.10;99.90;;;;;;5036434;28;20189;-58
2021/01/14 00:25:12;;;;;;;2.63;1.30;;;0.10;99.90;;;;;;5036601;28;20526;-60
2021/01/14 00:27:40;;;;;;;1.55;1.27;;;0.10;99.90;;;;;;5036511;28;20456;-60
2021/01/14 00:30:11;;;;;;;2.05;1.27;;;0.10;99.90;;;;;;5036169;28;20220;-60
2021/01/14 00:32:39;;;;;;;1.30;0.80;;;0.10;99.90;;;;;;5036080;28;20193;-61
2021/01/14 00:35:07;;;;;;;1.58;1.15;;;0.10;99.90;;;;;;5036132;28;20188;-59
2021/01/14 00:37:50;;;;;;;1.80;1.17;;;0.10;99.90;;;;;;5036654;28;20190;-59
2021/01/14 00:40:20;;;;;;;2.65;1.67;;;0.10;99.90;;;;;;5035796;28;20232;-59
2021/01/14 00:42:54;;;;;;;1.98;1.50;;;0.20;99.90;;;;;;5036025;28;20195;-61
2021/01/14 00:45:21;;;;;;;2.25;1.05;;;0.20;99.90;;;;;;5036014;28;20197;-59
2021/01/14 00:47:49;;;;;;;1.13;1.02;;;0.10;99.90;;;;;;5036560;28;20217;-58
2021/01/14 00:50:16;;;;;;;0.93;0.68;;;0.20;99.90;;;;;;5035280;28;20300;-57
2021/01/14 00:52:43;;;;;;;1.77;1.58;;;0.20;99.90;;;;;;5035732;28;20193;-57
2021/01/14 00:55:11;;;;;;;1.05;0.90;;;0.20;99.90;;;;;;5035577;28;20201;-61
2021/01/14 00:57:39;;;;;;;1.35;0.90;;;0.20;99.90;;;;;;5035916;28;20200;-58
2021/01/14 01:00:09;;;;;;;1.50;1.40;;;0.20;99.90;;;;;;5035289;28;20214;-57
2021/01/14 01:02:36;;;;;;;1.10;0.90;;;0.20;99.90;;;;;;5035197;28;20196;-58
2021/01/14 01:05:04;;;;;;;1.00;0.68;;;0.20;99.90;;;;;;5035236;28;20197;-61
2021/01/14 01:07:31;;;;;;;1.20;1.10;;;0.20;99.90;;;;;;5034501;28;20579;-55
2021/01/14 01:09:58;;;;;;;1.02;0.93;;;0.30;99.90;;;;;;5034718;28;20209;-60
2021/01/14 01:12:25;;;;;;;1.10;1.00;;;0.30;99.90;;;;;;5034862;28;20197;-61
2021/01/14 01:14:53;;;;;;;1.25;1.15;;;0.30;99.90;;;;;;5034924;28;20200;-56
2021/01/14 01:17:21;;;;;;;1.88;1.40;;;0.30;99.90;;;;;;5034908;28;20528;-60
2021/01/14 01:19:48;;;;;;;2.58;1.25;;;0.30;99.90;;;;;;5034319;28;20213;-60
2021/01/14 01:22:18;;;;;;;1.45;1.05;;;0.30;99.90;;;;;;5034246;28;20174;-58
2021/01/14 01:24:46;;;;;;;1.30;1.20;;;0.30;99.90;;;;;;5034542;28;20548;-59
2021/01/14 01:27:13;;;;;;;1.08;0.70;;;0.30;99.90;;;;;;5033243;28;20265;-59
2021/01/14 01:29:40;;;;;;;1.45;1.35;;;0.30;99.90;;;;;;5035040;28;20177;-60
2021/01/14 01:32:08;;;;;;;0.70;0.50;;;0.40;99.90;;;;;;5035122;28;20173;-59
2021/01/14 01:34:35;;;;;;;1.08;0.90;;;0.40;99.90;;;;;;5034701;28;20705;-62
2021/01/14 01:37:02;;;;;;;0.90;0.60;;;0.40;99.90;;;;;;5034609;28;20178;-56
2021/01/14 01:39:29;;;;;;;0.70;0.50;;;0.40;99.90;;;;;;5034210;28;20185;-58
2021/01/14 01:41:57;;;;;;;0.77;0.60;;;0.40;99.90;;;;;;5033997;28;20189;-58
2021/01/14 01:44:25;;;;;;;1.10;0.88;;;0.40;99.90;;;;;;5034213;28;20189;-58
2021/01/14 01:46:55;;;;;;;0.80;0.60;;;0.40;99.90;;;;;;5033977;28;20208;-58
2021/01/14 01:49:23;;;;;;;1.70;1.05;;;0.50;99.90;;;;;;5033938;28;20205;-60
2021/01/14 01:51:52;;;;;;;1.10;0.60;;;0.50;99.90;;;;;;5034336;28;20196;-60
2021/01/14 01:54:19;;;;;;;1.30;0.65;;;0.50;99.90;;;;;;5034125;28;20186;-60
2021/01/14 01:56:48;;;;;;;1.00;0.65;;;0.50;99.90;;;;;;5034297;28;20607;-60
2021/01/14 01:59:19;;;;;;;0.80;0.70;;;0.50;99.90;;;;;;5033890;28;20597;-57
2021/01/14 02:01:46;;;;;;;0.80;0.75;;;0.60;99.90;;;;;;5016571;28;20221;-58
2021/01/14 02:04:13;;;;;;;0.80;0.60;;;0.60;99.90;;;;;;5034983;28;20174;-61
2021/01/14 02:06:59;;;;;;;1.48;0.65;;;0.60;99.90;;;;;;5036188;28;20205;-59
2021/01/14 02:09:26;;;;;;;1.17;0.63;;;0.50;99.90;;;;;;5036277;28;20941;-58
2021/01/14 02:12:01;;;;;;;0.70;0.50;;;0.50;99.90;;;;;;5035286;28;20201;-60
2021/01/14 02:14:30;;;;;;;0.90;0.70;;;0.60;99.90;;;;;;5036021;28;20196;-60
2021/01/14 02:16:57;;;;;;;0.80;0.60;;;0.60;99.90;;;;;;5037386;28;20643;-61
2021/01/14 02:19:32;;;;;;;1.00;0.80;;;0.50;99.90;;;;;;5039134;28;20726;-59
2021/01/14 02:22:09;;;;;;;1.00;0.70;;;0.60;99.90;;;;;;5038407;28;20181;-62
2021/01/14 02:24:42;;;;;;;0.80;0.70;;;0.60;99.90;;;;;;5036427;28;20174;-58
2021/01/14 02:27:10;;;;;;;0.70;0.60;;;0.60;99.90;;;;;;5037214;28;20199;-56
2021/01/14 02:29:39;;;;;;;0.70;0.50;;;0.60;99.90;;;;;;5036450;28;20521;-61
2021/01/14 02:32:15;;;;;;;1.00;0.90;;;0.50;99.90;;;;;;5037822;28;20598;-59
2021/01/14 02:34:42;;;;;;;0.80;0.60;;;0.60;99.90;;;;;;5037674;28;20182;-57
2021/01/14 02:37:10;;;;;;;0.95;0.75;;;0.60;99.90;;;;;;5037538;28;20181;-58
2021/01/14 02:39:38;;;;;;;0.93;0.80;;;0.50;99.90;;;;;;5037084;28;20273;-61
2021/01/14 02:42:05;;;;;;;0.70;0.50;;;0.50;99.90;;;;;;5019212;28;20200;-61
2021/01/14 02:44:33;;;;;;;0.70;0.50;;;0.50;99.90;;;;;;5037889;28;20577;-61
2021/01/14 02:47:02;;;;;;;3.83;1.17;;;0.50;99.90;;;;;;5038408;28;20181;-61
2021/01/14 02:49:31;;;;;;;3.58;0.90;;;0.50;99.90;;;;;;5037655;28;20193;-59
2021/01/14 02:52:03;;;;;;;1.52;1.25;;;0.40;99.90;;;;;;5036967;28;20197;-59
2021/01/14 02:54:31;;;;;;;0.90;0.70;;;0.40;99.90;;;;;;5041448;28;20209;-62
2021/01/14 02:57:00;;;;;;;1.33;1.15;;;0.50;99.90;;;;;;5043859;28;20193;-61
2021/01/14 02:59:27;;;;;;;1.08;0.98;;;0.40;99.90;;;;;;5044944;28;20197;-57
2021/01/14 03:01:55;;;;;;;2.80;1.05;;;0.40;99.90;;;;;;5038811;28;20170;-60
2021/01/14 03:04:22;;;;;;;1.30;1.20;;;0.40;99.90;;;;;;5034467;28;20580;-61
2021/01/14 03:06:49;;;;;;;1.30;1.10;;;0.40;99.90;;;;;;5033759;28;20740;-59
2021/01/14 03:09:17;;;;;;;1.00;0.77;;;0.40;99.90;;;;;;5034073;28;20756;-60
2021/01/14 03:11:44;;;;;;;1.02;0.85;;;0.40;99.90;;;;;;5033914;28;20268;-60
2021/01/14 03:14:11;;;;;;;1.23;1.10;;;0.40;99.90;;;;;;5033695;28;20181;-61
2021/01/14 03:16:40;;;;;;;1.77;1.05;;;0.50;99.90;;;;;;5033859;28;20235;-60
2021/01/14 03:19:08;;;;;;;0.90;0.60;;;0.50;99.90;;;;;;5038392;28;20189;-61
2021/01/14 03:21:36;;;;;;;1.13;0.70;;;0.50;99.90;;;;;;5105414;22;20233;-51
2021/01/14 03:24:04;;;;;;;1.90;1.00;;;0.50;99.90;;;;;;5032843;28;20170;-52
2021/01/14 03:26:34;;;;;;;1.48;0.93;;;0.60;99.90;;;;;;5031782;28;20621;-48
2021/01/14 03:29:01;;;;;;;1.30;1.20;;;0.60;99.90;;;;;;5033442;28;20276;-50
2021/01/14 03:31:28;;;;;;;1.00;0.75;;;0.60;99.90;;;;;;5033750;28;20259;-51
2021/01/14 03:33:56;;;;;;;1.48;1.15;;;0.60;99.90;;;;;;5033325;28;20651;-51
2021/01/14 03:36:24;;;;;;;1.10;0.88;;;0.60;99.90;;;;;;5033987;28;20182;-51
2021/01/14 03:38:51;;;;;;;1.63;1.17;;;0.60;99.90;;;;;;5034543;28;20681;-50
2021/01/14 03:41:20;;;;;;;1.90;1.23;;;0.60;99.90;;;;;;5034808;28;20209;-50
2021/01/14 03:43:47;;;;;;;1.23;0.93;;;0.70;99.90;;;;;;5032724;28;20197;-48
2021/01/14 03:46:15;;;;;;;2.17;1.98;;;0.70;99.90;;;;;;5032563;28;20174;-50
2021/01/14 03:48:43;;;;;;;0.90;0.80;;;0.60;99.90;;;;;;5032565;28;20272;-48
2021/01/14 03:51:15;;;;;;;1.52;1.27;;;0.70;99.90;;;;;;5036742;28;20209;-52
2021/01/14 03:53:43;;;;;;;1.40;1.08;;;0.60;99.90;;;;;;5036567;28;20181;-54
2021/01/14 03:56:10;;;;;;;1.90;1.00;;;0.70;99.90;;;;;;5018880;28;20711;-55
2021/01/14 03:58:38;;;;;;;1.25;1.10;;;0.70;99.90;;;;;;5036659;28;20201;-51
2021/01/14 04:01:06;;;;;;;0.93;0.82;;;0.70;99.90;;;;;;5037015;28;20213;-50
2021/01/14 04:03:33;;;;;;;1.05;0.93;;;0.70;99.90;;;;;;5036619;28;20173;-50
2021/01/14 04:06:00;;;;;;;1.50;1.40;;;0.70;99.90;;;;;;5036326;28;20669;-49
2021/01/14 04:08:27;;;;;;;0.90;0.63;;;0.70;99.90;;;;;;5036278;28;20194;-55
2021/01/14 04:10:55;;;;;;;3.55;1.73;;;0.70;99.90;;;;;;5036230;28;20256;-57
2021/01/14 04:13:22;;;;;;;2.33;1.70;;;0.70;99.90;;;;;;5036706;28;20189;-50
2021/01/14 04:15:49;;;;;;;2.33;1.10;;;0.70;99.90;;;;;;5036800;28;20243;-50
2021/01/14 04:18:16;;;;;;;1.80;0.90;;;0.80;99.90;;;;;;5036307;28;20190;-49
2021/01/14 04:20:43;;;;;;;2.17;2.00;;;0.80;99.90;;;;;;5036168;28;20267;-49
2021/01/14 04:23:10;;;;;;;1.67;1.30;;;0.80;99.90;;;;;;5036270;28;20563;-54
2021/01/14 04:25:37;;;;;;;2.60;1.77;;;0.80;99.90;;;;;;5036428;28;20193;-57
2021/01/14 04:28:06;;;;;;;2.22;2.03;;;0.90;99.90;;;;;;5035919;28;20201;-55
2021/01/14 04:30:34;;;;;;;2.13;1.75;;;0.90;99.90;;;;;;5035800;28;20209;-56
2021/01/14 04:33:14;;;;;;;2.30;1.27;;;0.90;99.90;;;;;;5035826;28;20273;-52
2021/01/14 04:35:46;;;;;;;3.25;1.52;;;0.90;99.90;;;;;;5035795;28;20174;-56
2021/01/14 04:38:14;;;;;;;3.17;1.92;;;1.00;99.90;;;;;;5035787;28;20208;-55
2021/01/14 04:40:41;;;;;;;3.55;1.98;;;1.00;99.90;;;;;;5035753;28;20255;-56
2021/01/14 04:43:11;;;;;;;6.05;1.58;;;1.00;99.90;;;;;;5034430;28;20185;-54
2021/01/14 04:45:40;;;;;;;2.70;2.20;;;1.00;99.90;;;;;;5035643;28;20657;-55
2021/01/14 04:48:09;;;;;;;1.35;1.25;;;1.00;99.90;;;;;;5035478;28;20708;-55
2021/01/14 04:50:37;;;;;;;2.08;1.50;;;1.00;99.90;;;;;;5035233;28;20635;-57
2021/01/14 04:53:06;;;;;;;3.70;1.42;;;1.00;99.90;;;;;;5035469;28;20174;-56
2021/01/14 04:55:43;;;;;;;3.30;1.15;;;1.00;99.90;;;;;;5035373;28;20221;-51
2021/01/14 04:58:15;;;;;;;2.40;1.83;;;1.00;99.90;;;;;;5035397;28;20257;-56
2021/01/14 05:00:48;;;;;;;1.40;1.15;;;1.00;99.90;;;;;;5034869;28;20205;-55
2021/01/14 05:03:21;;;;;;;4.00;3.70;;;1.10;99.90;;;;;;5035256;28;20185;-55
2021/01/14 05:05:49;;;;;;;5.18;2.50;;;1.00;99.90;;;;;;5035402;28;20178;-54
2021/01/14 05:08:18;;;;;;;4.75;2.97;;;1.10;99.90;;;;;;5035394;28;20216;-50
2021/01/14 05:10:45;;;;;;;2.75;1.83;;;1.10;99.90;;;;;;5035071;28;20215;-55
2021/01/14 05:13:13;;;;;;;1.58;1.30;;;1.10;99.90;;;;;;5035210;28;20545;-53
2021/01/14 05:15:40;;;;;;;3.60;3.30;;;1.10;99.90;;;;;;5035222;28;20191;-55
2021/01/14 05:18:07;;;;;;;2.53;2.03;;;1.10;99.90;;;;;;5035102;28;20177;-49
2021/01/14 05:20:35;;;;;;;4.40;3.97;;;1.10;99.90;;;;;;5034697;28;20205;-50
2021/01/14 05:23:04;;;;;;;3.70;3.38;;;1.10;99.90;;;;;;5034766;28;20197;-49
2021/01/14 05:25:32;;;;;;;10.88;4.13;;;1.10;99.90;;;;;;5035036;28;20182;-48
2021/01/14 05:28:10;;;;;;;4.03;3.72;;;1.10;99.90;;;;;;5034789;28;20213;-48
2021/01/14 05:30:39;;;;;;;5.10;4.13;;;1.10;99.90;;;;;;5034852;28;20213;-47
2021/01/14 05:33:12;;;;;;;3.33;2.88;;;1.10;99.90;;;;;;5034818;28;20185;-48
2021/01/14 05:35:47;;;;;;;5.38;2.10;;;1.10;99.90;;;;;;5034930;28;20188;-50
2021/01/14 05:38:25;;;;;;;3.08;2.88;;;1.10;99.90;;;;;;5034871;28;20169;-54
2021/01/14 05:41:18;;;;;;;3.40;3.00;;;1.10;99.90;;;;;;5035040;28;20261;-52
2021/01/14 05:43:50;;;;;;;7.60;6.90;;;1.10;99.90;;;;;;5035253;28;20243;-50
2021/01/14 05:46:20;;;;;;;3.90;2.35;;;1.10;99.90;;;;;;5034976;28;20257;-52
2021/01/14 05:48:49;;;;;;;5.50;4.82;;;1.20;99.90;;;;;;5034804;28;20197;-52
2021/01/14 05:51:18;;;;;;;3.42;3.05;;;1.10;99.90;;;;;;5035193;28;20216;-54
2021/01/14 05:53:59;;;;;;;2.40;2.20;;;1.00;99.90;;;;;;5034577;28;20181;-51
2021/01/14 05:56:36;;;;;;;2.83;2.50;;;1.00;99.90;;;;;;5034518;28;20181;-50
2021/01/14 05:59:06;;;;;;;5.63;3.35;;;0.90;99.90;;;;;;5034449;28;20173;-54
2021/01/14 06:01:36;;;;;;;5.45;3.28;;;1.00;99.90;;;;;;5033875;28;20221;-56
2021/01/14 06:04:16;;;;;;;7.50;4.53;;;1.00;99.90;;;;;;5034229;28;20177;-50
2021/01/14 06:06:48;;;;;;;4.15;3.63;;;1.00;99.90;;;;;;5034369;28;20186;-54
2021/01/14 06:09:17;;;;;;;9.85;4.18;;;1.10;99.90;;;;;;5034771;28;20358;-51
2021/01/14 06:11:45;;;;;;;5.47;4.20;;;1.10;99.90;;;;;;5034158;28;20220;-50
2021/01/14 06:14:32;;;;;;;3.45;2.65;;;1.10;99.90;;;;;;5039731;28;20265;-54
2021/01/14 06:17:00;;;;;;;3.15;2.35;;;1.10;99.90;;;;;;5053947;28;20183;-56
2021/01/14 06:19:29;;;;;;;4.25;3.60;;;1.20;99.90;;;;;;5054377;28;20177;-51
2021/01/14 06:21:57;;;;;;;3.55;2.38;;;1.10;99.90;;;;;;5054121;28;20197;-56
2021/01/14 06:24:26;;;;;;;11.02;3.63;;;1.20;99.90;;;;;;5054367;28;20579;-54
2021/01/14 06:26:58;;;;;;;6.63;4.75;;;1.20;99.90;;;;;;5053792;28;20271;-54
2021/01/14 06:29:27;;;;;;;4.53;3.72;;;1.10;99.90;;;;;;5053797;28;20211;-56
2021/01/14 06:32:09;;;;;;;4.13;3.42;;;1.10;99.90;;;;;;5053898;28;20173;-56
2021/01/14 06:34:38;;;;;;;7.75;3.40;;;1.20;99.90;;;;;;5053785;28;20177;-56
2021/01/14 06:37:10;;;;;;;6.57;2.47;;;1.10;99.90;;;;;;5054028;28;20193;-57
2021/01/14 06:39:41;;;;;;;5.00;2.35;;;1.20;99.90;;;;;;5053705;28;20622;-55
2021/01/14 06:42:19;;;;;;;3.63;3.08;;;1.10;99.90;;;;;;5054054;28;20192;-52
2021/01/14 06:44:50;;;;;;;7.57;3.88;;;1.10;99.90;;;;;;5054418;28;20691;-56
2021/01/14 06:47:30;;;;;;;4.35;3.35;;;1.10;99.90;;;;;;5054459;28;20185;-56
2021/01/14 06:50:21;;;;;;;14.52;3.30;;;1.10;99.90;;;;;;5053644;28;20216;-50
2021/01/14 06:52:53;;;;;;;4.32;3.15;;;1.10;99.90;;;;;;5053161;28;20597;-54
2021/01/14 06:55:23;;;;;;;4.25;2.88;;;1.10;99.90;;;;;;5053061;28;20177;-53
2021/01/14 06:58:06;;;;;;;4.75;3.25;;;1.00;99.90;;;;;;5053292;28;20747;-55
2021/01/14 07:00:35;;;;;;;12.43;8.07;;;1.00;99.90;;;;;;5053409;28;20232;-49
2021/01/14 07:03:20;;;;;;;5.00;4.00;;;0.90;99.90;;;;;;5052937;28;20185;-48
2021/01/14 07:06:13;;;;;;;3.70;3.30;;;0.90;99.90;;;;;;5053118;28;20177;-52
2021/01/14 07:08:41;;;;;;;4.63;4.15;;;0.90;99.90;;;;;;5053495;28;20192;-56
2021/01/14 07:11:14;;;;;;;4.55;4.15;;;0.90;99.90;;;;;;5053835;28;20681;-56
2021/01/14 07:13:43;;;;;;;7.28;4.85;;;0.90;99.90;;;;;;5053457;28;20189;-57
2021/01/14 07:16:11;;;;;;;3.17;2.50;;;1.00;99.90;;;;;;5052983;28;20177;-59
2021/01/14 07:18:41;;;;;;;3.40;2.97;;;1.00;99.90;;;;;;5053995;28;20480;-59
2021/01/14 07:21:34;;;;;;;10.77;2.40;;;0.90;99.90;;;;;;5053759;28;20209;-60
2021/01/14 07:24:06;;;;;;;5.50;4.88;;;0.80;99.90;;;;;;5053948;28;20654;-59
2021/01/14 07:26:34;;;;;;;8.20;6.13;;;0.80;99.90;;;;;;5053553;28;20181;-58
2021/01/14 07:29:04;;;;;;;8.18;7.03;;;0.70;99.90;;;;;;5053391;28;20212;-58
2021/01/14 07:31:32;;;;;;;4.80;3.60;;;0.60;99.90;;;;;;5053373;28;20204;-55
2021/01/14 07:34:36;;;;;;;3.17;2.88;;;0.60;99.90;;;;;;5053894;28;20211;-59
2021/01/14 07:37:08;;;;;;;3.72;3.47;;;0.50;99.90;;;;;;5053430;28;20177;-57
2021/01/14 07:39:46;;;;;;;7.85;3.45;;;0.50;99.90;;;;;;5053280;28;20205;-60
2021/01/14 07:42:21;;;;;;;3.38;3.08;;;0.50;99.90;;;;;;5053267;28;20652;-58
2021/01/14 07:44:53;;;;;;;2.67;2.42;;;0.50;99.90;;;;;;5053031;28;20515;-56
2021/01/14 07:47:31;;;;;;;2.55;2.38;;;0.50;99.90;;;;;;5053080;28;20672;-57
2021/01/14 07:50:00;;;;;;;6.07;3.30;;;0.50;99.90;;;;;;5053627;28;20704;-57
2021/01/14 07:52:32;;;;;;;6.30;4.80;;;0.60;99.90;;;;;;5053103;28;20664;-58
2021/01/14 07:55:02;;;;;;;3.03;2.72;;;0.60;99.90;;;;;;5053247;28;20264;-60
2021/01/14 07:57:30;;;;;;;4.47;3.17;;;0.70;99.90;;;;;;5053822;28;20653;-59
2021/01/14 07:59:58;;;;;;;4.88;3.70;;;0.70;99.90;;;;;;5053363;28;20239;-59
2021/01/14 08:02:25;;;;;;;3.83;3.47;;;0.70;99.90;;;;;;5053428;28;20193;-58
2021/01/14 08:04:53;;;;;;;5.28;3.80;;;0.70;99.90;;;;;;5052616;28;20275;-50
2021/01/14 08:07:25;;;;;;;3.03;2.72;;;0.70;99.90;;;;;;5052017;28;20192;-47
2021/01/14 08:09:52;;;;;;;2.25;1.75;;;0.70;99.90;;;;;;5051930;28;20212;-50
2021/01/14 08:12:21;;;;;;;2.55;1.40;;;0.70;99.90;;;;;;5052776;28;20200;-50
2021/01/14 08:14:49;;;;;;;3.25;1.98;;;0.80;99.90;;;;;;5048598;28;20220;-49
2021/01/14 08:17:21;;;;;;;3.17;2.65;;;0.70;99.90;;;;;;5037412;28;20216;-51
2021/01/14 08:19:49;;;;;;;6.05;4.68;;;0.80;99.90;;;;;;5052266;28;20694;-55
2021/01/14 08:25:03;;;;;;;3.90;2.75;;;0.80;99.90;;;;;;4991706;28;20209;-58
2021/01/14 08:27:32;;;;;;;4.20;2.80;;;0.90;99.90;;;;;;4993664;28;20211;-59
2021/01/14 08:30:04;;;;;;;2.58;1.48;;;1.00;99.90;;;;;;4988924;28;20219;-60
2021/01/14 08:32:34;;;;;;;2.50;2.20;;;1.10;99.90;;;;;;4972906;28;20570;-58
2021/01/14 08:35:24;;;;;;;2.45;2.13;;;1.20;99.90;;;;;;4975068;28;20202;-59
2021/01/14 08:37:53;;;;;;;4.57;3.28;;;1.40;99.90;;;;;;4977648;28;20213;-55
2021/01/14 08:40:29;;;;;;;3.35;3.00;;;1.50;99.90;;;;;;4977497;28;20211;-60
2021/01/14 08:43:02;;;;;;;4.70;3.05;;;1.60;99.90;;;;;;4979336;28;20321;-60
2021/01/14 08:45:31;;;;;;;2.13;1.48;;;1.60;99.90;;;;;;4978172;28;20187;-59
2021/01/14 08:48:09;;;;;;;2.08;1.65;;;1.70;99.90;;;;;;4977511;28;20187;-60
2021/01/14 08:50:48;;;;;;;1.58;1.40;;;1.80;99.90;;;;;;4976729;28;20230;-58
2021/01/14 08:53:27;;;;;;;7.47;2.75;;;1.90;99.90;;;;;;4977518;28;20180;-56
2021/01/14 08:55:56;;;;;;;3.35;2.00;;;2.00;99.90;;;;;;4976788;28;20187;-58
2021/01/14 08:58:38;;;;;;;1.80;0.95;;;2.10;99.90;;;;;;4977850;28;20699;-59
2021/01/14 09:01:07;;;;;;;3.03;2.13;;;2.00;99.90;;;;;;4977585;28;20211;-56
2021/01/14 09:03:35;;;;;;;3.08;1.40;;;2.00;99.90;;;;;;4977304;28;20250;-58
2021/01/14 09:06:03;;;;;;;2.72;1.92;;;2.00;99.90;;;;;;4976855;28;20239;-58
2021/01/14 09:08:30;;;;;;;1.40;0.85;;;2.00;99.90;;;;;;4976848;28;20683;-59
2021/01/14 09:10:59;;;;;;;3.47;1.50;;;2.00;99.90;;;;;;4976825;28;20222;-58
2021/01/14 09:13:28;;;;;;;3.83;2.58;;;2.00;99.90;;;;;;4976551;28;20187;-60
2021/01/14 09:15:57;;;;;;;1.67;1.35;;;2.10;99.90;;;;;;4976811;28;20669;-59
2021/01/14 09:18:31;;;;;;;2.45;1.73;;;2.10;99.90;;;;;;4976871;28;20666;-59
2021/01/14 09:21:00;;;;;;;1.85;1.55;;;2.10;99.90;;;;;;4993184;23;20306;-55
2021/01/14 09:23:32;;;;;;;4.22;1.42;;;2.00;99.90;;;;;;5033059;28;20259;-56
2021/01/14 09:26:03;;;;;;;2.30;2.10;;;2.00;99.90;;;;;;5033860;28;20189;-54
2021/01/14 09:28:32;;;;;;;2.20;1.90;;;2.10;99.90;;;;;;5033504;28;20721;-54
2021/01/14 09:31:03;;;;;;;1.50;1.40;;;2.10;99.90;;;;;;5033909;28;20205;-53
2021/01/14 09:33:31;;;;;;;1.42;1.15;;;2.00;99.90;;;;;;5032416;28;20185;-60
2021/01/14 09:36:03;;;;;;;1.92;1.52;;;2.00;99.90;;;;;;5034196;28;20200;-54
2021/01/14 09:38:36;;;;;;;2.72;1.90;;;1.90;99.90;;;;;;5034386;28;20593;-55
2021/01/14 09:41:06;;;;;;;1.85;1.45;;;1.90;99.90;;;;;;5034089;28;20205;-53
2021/01/14 09:43:34;;;;;;;2.70;1.65;;;1.90;99.90;;;;;;5033526;28;20193;-55
2021/01/14 09:46:02;;;;;;;7.40;1.67;;;2.00;99.90;;;;;;5033997;28;20180;-56
2021/01/14 09:48:33;;;;;;;2.70;1.80;;;1.90;99.90;;;;;;5032959;28;20217;-57
2021/01/14 09:51:07;;;;;;;2.78;2.03;;;1.80;99.90;;;;;;5034293;28;20293;-57
2021/01/14 09:53:40;;;;;;;4.05;1.55;;;1.80;99.90;;;;;;5034316;28;20193;-58
2021/01/14 09:56:11;;;;;;;3.08;1.50;;;1.90;99.90;;;;;;5033983;28;20185;-54
2021/01/14 09:58:41;;;;;;;2.80;1.92;;;1.90;99.90;;;;;;5034153;28;20537;-53
2021/01/14 10:01:13;;;;;;;2.13;1.90;;;1.90;99.90;;;;;;5035845;28;20287;-55
2021/01/14 10:03:42;;;;;;;4.15;3.40;;;2.00;99.90;;;;;;5040294;28;20180;-56
2021/01/14 10:06:10;;;;;;;2.40;2.20;;;2.00;99.90;;;;;;5039174;28;20189;-56
2021/01/14 10:08:40;;;;;;;2.92;2.35;;;2.10;99.90;;;;;;5039425;28;20193;-58
2021/01/14 10:11:08;;;;;;;4.50;3.17;;;2.20;99.90;;;;;;5037787;28;20713;-57
2021/01/14 10:13:35;;;;;;;6.40;3.60;;;2.30;99.90;;;;;;5037722;28;20204;-61
2021/01/14 10:16:09;;;;;;;4.88;4.07;;;2.20;99.90;;;;;;5038020;28;20608;-57
2021/01/14 10:18:36;;;;;;;5.88;3.95;;;2.30;99.90;;;;;;5037920;28;20193;-56
2021/01/14 10:21:04;;;;;;;8.45;4.00;;;2.30;99.90;;;;;;5037197;28;20304;-53
2021/01/14 10:23:33;;;;;;;11.02;4.57;;;2.30;99.90;;;;;;5034299;28;20697;-58
2021/01/14 10:26:00;;;;;;;10.55;6.38;;;2.30;99.90;;;;;;5034132;28;20185;-57
2021/01/14 10:28:28;;;;;;;6.68;5.85;;;2.30;99.90;;;;;;5033326;28;20517;-56
2021/01/14 10:30:55;;;;;;;5.43;4.93;;;2.30;99.90;;;;;;5032810;28;20717;-60
2021/01/14 10:33:23;;;;;;;5.63;4.20;;;2.30;99.90;;;;;;5032984;28;20186;-56
2021/01/14 10:35:55;;;;;;;5.45;4.05;;;2.30;99.90;;;;;;5032993;28;20236;-56
2021/01/14 10:38:22;;;;;;;6.72;3.83;;;2.40;99.90;;;;;;5036565;28;20649;-58
2021/01/14 10:40:51;;;;;;;11.10;3.75;;;2.50;99.90;;;;;;5040590;28;20279;-59
2021/01/14 10:43:35;;;;;;;4.03;3.63;;;2.50;99.90;;;;;;5051955;28;20203;-57
2021/01/14 10:46:04;;;;;;;4.32;2.85;;;2.50;99.90;;;;;;5045297;28;20221;-58
2021/01/14 10:48:38;;;;;;;10.27;4.20;;;2.40;99.90;;;;;;5033668;28;20220;-57
2021/01/14 10:51:06;;;;;;;5.40;4.90;;;2.30;99.90;;;;;;5033120;28;20569;-59
2021/01/14 10:53:36;;;;;;;3.60;3.30;;;2.20;99.90;;;;;;5035773;28;20189;-58
2021/01/14 10:56:06;;;;;;;5.63;3.72;;;2.30;99.90;;;;;;5034451;28;20797;-55
2021/01/14 10:58:38;;;;;;;3.35;3.05;;;2.30;99.90;;;;;;5033759;28;20217;-58
2021/01/14 11:01:15;;;;;;;10.23;4.68;;;2.30;99.90;;;;;;5033482;28;20205;-56
2021/01/14 11:03:43;;;;;;;4.18;3.17;;;2.20;99.90;;;;;;5032868;28;20197;-57
2021/01/14 11:06:11;;;;;;;6.32;3.75;;;2.30;99.90;;;;;;5032337;28;20251;-61
2021/01/14 11:08:40;;;;;;;3.03;2.80;;;2.30;99.90;;;;;;5031817;28;20189;-61
2021/01/14 11:11:09;;;;;;;7.93;4.18;;;2.40;99.90;;;;;;5032038;28;20213;-57
2021/01/14 11:13:42;;;;;;;4.38;3.30;;;2.30;99.90;;;;;;5032457;28;20268;-57
2021/01/14 11:16:11;;;;;;;11.02;3.45;;;2.40;99.90;;;;;;5032820;28;20221;-58
2021/01/14 11:18:40;;;;;;;4.15;3.45;;;2.60;99.90;;;;;;5034009;28;20198;-60
2021/01/14 11:21:08;;;;;;;4.32;3.42;;;2.70;99.90;;;;;;5032146;28;20771;-58
2021/01/14 11:23:36;;;;;;;5.78;4.95;;;2.70;99.90;;;;;;5032002;28;20200;-56
2021/01/14 11:26:04;;;;;;;4.25;3.85;;;2.70;99.90;;;;;;5032563;28;20200;-59
2021/01/14 11:28:32;;;;;;;3.60;3.05;;;2.90;99.90;;;;;;5032928;28;20189;-58
2021/01/14 11:31:00;;;;;;;4.35;3.72;;;3.00;99.90;;;;;;5032797;28;20202;-58
2021/01/14 11:33:27;;;;;;;7.60;4.15;;;2.80;99.90;;;;;;5034953;28;20189;-57
2021/01/14 11:35:55;;;;;;;5.88;3.78;;;2.70;99.90;;;;;;5032973;28;20596;-58
2021/01/14 11:38:22;;;;;;;3.75;2.83;;;2.70;99.90;;;;;;5032684;28;20189;-60
2021/01/14 11:40:50;;;;;;;9.20;4.40;;;2.60;99.90;;;;;;5032182;28;20255;-56
2021/01/14 11:43:18;;;;;;;3.47;2.78;;;2.60;99.90;;;;;;5031938;28;20578;-58
2021/01/14 11:45:46;;;;;;;2.90;1.85;;;2.50;99.90;;;;;;5031694;28;20198;-59
2021/01/14 11:48:14;;;;;;;3.40;2.85;;;2.40;99.90;;;;;;5031744;28;20252;-55
2021/01/14 11:50:41;;;;;;;15.77;6.20;;;2.40;99.90;;;;;;5032112;28;20225;-57
2021/01/14 11:53:08;;;;;;;6.82;4.20;;;2.40;99.90;;;;;;5031804;28;20189;-56
2021/01/14 11:55:35;;;;;;;6.47;4.05;;;2.40;99.90;;;;;;5032107;28;20182;-57
2021/01/14 11:58:02;;;;;;;6.70;4.13;;;2.40;99.90;;;;;;5031561;28;20189;-59
2021/01/14 12:00:30;;;;;;;3.80;3.40;;;2.40;99.90;;;;;;5031128;28;20205;-59
2021/01/14 12:02:57;;;;;;;11.07;5.28;;;2.50;99.90;;;;;;5031086;28;20693;-60
2021/01/14 12:05:26;;;;;;;6.60;4.07;;;2.40;99.90;;;;;;5031728;28;20193;-54
2021/01/14 12:07:53;;;;;;;5.78;3.50;;;2.40;99.90;;;;;;5031603;28;20189;-56
2021/01/14 12:10:20;;;;;;;5.57;4.03;;;2.40;99.90;;;;;;5031787;28;20275;-57
2021/01/14 12:12:47;;;;;;;10.90;4.60;;;2.40;99.90;;;;;;5034936;28;20570;-56
2021/01/14 12:15:15;;;;;;;3.95;3.30;;;2.40;99.90;;;;;;5031469;28;20178;-59
2021/01/14 12:17:42;;;;;;;16.73;4.47;;;2.40;99.90;;;;;;5015472;28;20182;-57
2021/01/14 12:20:10;;;;;;;4.55;4.15;;;2.40;99.90;;;;;;5014931;28;20260;-55
2021/01/14 12:22:39;;;;;;;4.32;3.20;;;2.50;99.90;;;;;;5014778;28;20225;-56
2021/01/14 12:25:08;;;;;;;4.55;3.22;;;2.50;99.90;;;;;;5015244;28;20224;-61
2021/01/14 12:27:35;;;;;;;6.20;4.32;;;2.50;99.90;;;;;;5015784;28;20174;-59
2021/01/14 12:30:04;;;;;;;6.13;5.25;;;2.50;99.90;;;;;;5016057;28;20229;-59
2021/01/14 12:32:32;;;;;;;4.85;4.13;;;2.50;99.90;;;;;;4997303;28;20194;-58
2021/01/14 12:35:00;;;;;;;5.38;3.60;;;2.40;99.90;;;;;;5015222;28;20178;-56
2021/01/14 12:37:32;;;;;;;5.75;4.28;;;2.40;99.90;;;;;;4997791;28;20202;-59
2021/01/14 12:40:00;;;;;;;4.90;3.03;;;2.30;99.90;;;;;;5015418;28;20702;-58
2021/01/14 12:42:27;;;;;;;6.57;3.72;;;2.30;99.90;;;;;;5015655;28;20543;-57
2021/01/14 12:44:54;;;;;;;5.43;3.85;;;2.30;99.90;;;;;;5014654;28;20200;-62
2021/01/14 12:47:21;;;;;;;8.30;3.88;;;2.30;99.90;;;;;;5014618;28;20196;-57
2021/01/14 12:49:48;;;;;;;6.05;3.38;;;2.40;99.90;;;;;;5014088;28;20249;-62
2021/01/14 12:52:16;;;;;;;14.15;3.25;;;2.50;99.90;;;;;;5014773;28;20225;-56
2021/01/14 12:54:43;;;;;;;3.47;3.13;;;2.50;99.90;;;;;;5014636;28;20189;-57
2021/01/14 12:57:11;;;;;;;5.05;3.13;;;2.50;99.90;;;;;;5015188;28;20170;-56
2021/01/14 12:59:38;;;;;;;4.65;3.15;;;2.60;99.90;;;;;;5014580;28;20288;-55
2021/01/14 13:02:06;;;;;;;5.53;4.13;;;2.60;99.90;;;;;;5014371;28;20190;-58
2021/01/14 13:04:33;;;;;;;4.82;4.10;;;2.50;99.90;;;;;;5015306;28;20197;-58
2021/01/14 13:07:01;;;;;;;5.50;3.97;;;2.50;99.90;;;;;;5015263;28;20197;-63
2021/01/14 13:09:28;;;;;;;5.63;3.97;;;2.40;99.90;;;;;;5014737;28;20630;-56
2021/01/14 13:11:57;;;;;;;6.90;3.97;;;2.40;99.90;;;;;;5014668;28;20190;-61